createdAt,value
2023-01-12T00:02:15.331Z,5.20
2023-01-12T00:04:42.863Z,5.10
2023-01-12T00:07:14.089Z,5.10
2023-01-12T00:09:41.099Z,5.10
2023-01-12T00:12:12.178Z,5.10
2023-01-12T00:14:40.091Z,5.10
2023-01-12T00:17:08.983Z,5.10
2023-01-12T00:19:38.609Z,5.10
2023-01-12T00:22:11.414Z,5.10
2023-01-12T00:24:47.914Z,5.10
2023-01-12T00:27:20.374Z,5.10
2023-01-12T00:29:48.649Z,5.00
2023-01-12T00:32:20.036Z,5.00
2023-01-12T00:34:47.509Z,5.00
2023-01-12T00:37:14.612Z,5.00
2023-01-12T00:39:45.831Z,5.00
2023-01-12T00:42:34.629Z,5.00
2023-01-12T00:45:20.073Z,5.00
2023-01-12T00:47:46.989Z,5.00
2023-01-12T00:50:16.525Z,5.00
2023-01-12T00:52:45.018Z,5.00
2023-01-12T00:55:11.892Z,5.00
2023-01-12T00:57:39.010Z,5.00
2023-01-12T01:00:07.156Z,5.00
2023-01-12T01:02:34.106Z,4.90
2023-01-12T01:05:00.963Z,5.00
2023-01-12T01:07:27.880Z,4.90
2023-01-12T01:09:54.765Z,5.00
2023-01-12T01:12:21.778Z,5.00
2023-01-12T01:14:49.162Z,5.00
2023-01-12T01:17:16.414Z,5.00
2023-01-12T01:19:43.509Z,5.00
2023-01-12T01:22:12.489Z,5.00
2023-01-12T01:24:39.869Z,5.10
2023-01-12T01:27:06.789Z,5.10
2023-01-12T01:29:33.678Z,5.10
2023-01-12T01:32:00.549Z,5.10
2023-01-12T01:34:27.600Z,5.10
2023-01-12T01:36:54.511Z,5.10
2023-01-12T01:39:21.371Z,5.10
2023-01-12T01:41:48.427Z,5.20
2023-01-12T01:44:30.547Z,5.20
2023-01-12T01:47:07.767Z,5.30
2023-01-12T01:49:50.848Z,5.30
2023-01-12T01:52:39.703Z,5.30
2023-01-12T01:55:37.112Z,5.30
2023-01-12T01:58:22.563Z,5.40
2023-01-12T02:00:49.652Z,5.40
2023-01-12T02:03:18.636Z,5.50
2023-01-12T02:05:49.912Z,5.50
2023-01-12T02:09:02.379Z,5.50
2023-01-12T02:11:49.528Z,5.40
2023-01-12T02:14:35.000Z,5.40
2023-01-12T02:18:00.035Z,5.40
2023-01-12T02:21:06.968Z,5.40
2023-01-12T02:24:30.356Z,5.30
2023-01-12T02:27:50.361Z,5.40
2023-01-12T02:31:03.212Z,5.30
2023-01-12T02:33:38.912Z,5.30
2023-01-12T02:36:44.805Z,5.30
2023-01-12T02:39:45.039Z,5.30
2023-01-12T02:42:42.874Z,5.20
2023-01-12T02:45:51.117Z,5.00
2023-01-12T02:48:52.625Z,5.10
2023-01-12T02:51:40.299Z,5.20
2023-01-12T02:54:19.598Z,5.20
2023-01-12T02:56:54.869Z,5.30
2023-01-12T02:59:38.198Z,5.20
2023-01-12T03:02:15.041Z,5.30
2023-01-12T03:04:42.323Z,5.20
2023-01-12T03:07:45.393Z,5.00
2023-01-12T03:10:26.461Z,4.90
2023-01-12T03:12:58.650Z,4.80
2023-01-12T03:15:31.923Z,4.80
2023-01-12T03:18:28.953Z,4.80
2023-01-12T03:21:28.293Z,4.90
2023-01-12T03:24:14.535Z,4.80
2023-01-12T03:26:49.589Z,4.60
2023-01-12T03:29:46.248Z,4.40
2023-01-12T03:32:13.219Z,4.20
2023-01-12T03:34:40.132Z,3.90
2023-01-12T03:37:34.171Z,3.80
2023-01-12T03:40:25.446Z,3.70
2023-01-12T03:43:53.675Z,3.70
2023-01-12T03:46:45.990Z,3.70
2023-01-12T03:49:31.698Z,3.70
2023-01-12T03:52:04.629Z,3.70
2023-01-12T03:54:38.502Z,3.70
2023-01-12T03:57:10.157Z,3.70
2023-01-12T03:59:37.407Z,3.70
2023-01-12T04:02:04.365Z,3.60
2023-01-12T04:04:31.275Z,3.50
2023-01-12T04:07:01.081Z,3.50
2023-01-12T04:09:28.652Z,3.40
2023-01-12T04:12:10.620Z,3.30
2023-01-12T04:14:47.593Z,3.20
2023-01-12T04:17:16.309Z,3.20
2023-01-12T04:19:43.369Z,3.10
2023-01-12T04:22:33.990Z,3.00
2023-01-12T04:25:00.892Z,3.10
2023-01-12T04:27:28.015Z,3.10
2023-01-12T04:29:55.064Z,3.10
2023-01-12T04:32:22.583Z,3.10
2023-01-12T04:34:49.493Z,3.10
2023-01-12T04:37:16.781Z,3.10
2023-01-12T04:39:43.685Z,3.10
2023-01-12T04:42:30.518Z,3.10
2023-01-12T04:44:57.423Z,3.10
2023-01-12T04:47:24.385Z,3.20
2023-01-12T04:49:51.235Z,3.30
2023-01-12T04:52:18.116Z,3.20
2023-01-12T04:54:45.016Z,3.10
2023-01-12T04:57:11.879Z,3.10
2023-01-12T04:59:38.744Z,3.10
2023-01-12T05:02:05.670Z,3.00
2023-01-12T05:04:32.597Z,2.90
2023-01-12T05:06:59.516Z,2.90
2023-01-12T05:09:45.291Z,2.80
2023-01-12T05:12:12.250Z,2.70
2023-01-12T05:14:39.096Z,2.60
2023-01-12T05:17:06.069Z,2.50
2023-01-12T05:19:32.925Z,2.50
2023-01-12T05:21:59.808Z,2.50
2023-01-12T05:24:26.723Z,2.50
2023-01-12T05:26:53.656Z,2.50
2023-01-12T05:29:20.533Z,2.60
2023-01-12T05:31:47.459Z,2.80
2023-01-12T05:34:14.320Z,2.90
2023-01-12T05:36:41.230Z,3.00
2023-01-12T05:39:08.114Z,3.10
2023-01-12T05:41:34.998Z,3.20
2023-01-12T05:44:01.921Z,3.30
2023-01-12T05:46:33.322Z,3.40
2023-01-12T05:49:00.245Z,3.50
2023-01-12T05:51:30.689Z,3.60
2023-01-12T05:53:57.618Z,3.70
2023-01-12T05:56:27.887Z,3.80
2023-01-12T05:59:00.109Z,3.90
2023-01-12T06:01:29.758Z,4.00
2023-01-12T06:04:00.845Z,4.10
2023-01-12T06:06:31.283Z,4.20
2023-01-12T06:09:00.512Z,4.40
2023-01-12T06:11:46.171Z,4.50
2023-01-12T06:14:13.226Z,4.60
2023-01-12T06:16:43.566Z,4.70
2023-01-12T06:19:12.980Z,4.80
2023-01-12T06:21:40.817Z,4.90
2023-01-12T06:24:08.916Z,4.90
2023-01-12T06:26:35.968Z,5.00
2023-01-12T06:29:05.274Z,5.00
2023-01-12T06:31:32.650Z,5.00
2023-01-12T06:33:59.565Z,5.10
2023-01-12T06:36:26.527Z,5.10
2023-01-12T06:38:53.389Z,5.10
2023-01-12T06:41:38.975Z,5.20
2023-01-12T06:44:06.259Z,5.20
2023-01-12T06:46:36.017Z,5.20
2023-01-12T06:49:02.889Z,5.20
2023-01-12T06:51:29.819Z,5.20
2023-01-12T06:53:56.740Z,5.20
2023-01-12T06:56:23.680Z,5.20
2023-01-12T06:58:50.636Z,5.20
2023-01-12T07:01:17.782Z,5.30
2023-01-12T07:03:45.194Z,5.30
2023-01-12T07:06:12.803Z,5.30
2023-01-12T07:08:39.723Z,5.30
2023-01-12T07:11:08.039Z,5.30
2023-01-12T07:13:35.341Z,5.20
2023-01-12T07:16:02.828Z,5.10
2023-01-12T07:18:31.074Z,5.10
2023-01-12T07:20:58.175Z,5.10
2023-01-12T07:23:25.389Z,5.10
2023-01-12T07:25:52.369Z,5.10
2023-01-12T07:28:19.261Z,5.10
2023-01-12T07:30:46.196Z,5.10
2023-01-12T07:33:17.684Z,5.00
2023-01-12T07:35:45.976Z,5.00
2023-01-12T07:38:12.973Z,5.00
2023-01-12T07:40:39.945Z,5.10
2023-01-12T07:43:09.250Z,5.10
2023-01-12T07:45:36.218Z,5.10
2023-01-12T07:48:03.509Z,5.10
2023-01-12T07:50:30.553Z,5.10
2023-01-12T07:53:02.213Z,5.10
2023-01-12T07:55:31.606Z,5.10
2023-01-12T07:58:08.649Z,5.00
2023-01-12T08:00:36.825Z,5.00
2023-01-12T08:03:11.832Z,5.00
2023-01-12T08:05:39.649Z,5.00
2023-01-12T08:08:07.514Z,5.00
2023-01-12T08:10:34.674Z,5.00
2023-01-12T08:13:01.865Z,5.00
2023-01-12T08:15:36.085Z,5.10
2023-01-12T08:18:26.737Z,5.20
2023-01-12T08:21:00.766Z,5.30
2023-01-12T08:23:36.982Z,5.40
2023-01-12T08:26:16.485Z,5.60
2023-01-12T08:28:57.633Z,5.80
2023-01-12T08:31:26.921Z,6.10
2023-01-12T08:33:55.530Z,6.30
2023-01-12T08:36:25.287Z,6.30
2023-01-12T08:38:52.713Z,6.20
2023-01-12T08:41:37.283Z,6.10
2023-01-12T08:44:10.749Z,6.10
2023-01-12T08:46:53.838Z,6.00
2023-01-12T08:49:28.042Z,6.10
2023-01-12T08:51:55.523Z,6.10
2023-01-12T08:54:23.781Z,6.10
2023-01-12T08:56:51.303Z,6.10
2023-01-12T08:59:19.149Z,6.10
2023-01-12T09:03:39.742Z,6.10
2023-01-12T09:06:25.465Z,6.30
2023-01-12T09:09:03.663Z,6.50
2023-01-12T09:11:32.418Z,6.80
2023-01-12T09:13:59.573Z,7.00
2023-01-12T09:16:30.432Z,7.20
2023-01-12T09:18:57.472Z,7.20
2023-01-12T09:21:28.651Z,7.20
2023-01-12T09:23:56.749Z,7.10
2023-01-12T09:26:32.046Z,7.10
2023-01-12T09:29:02.249Z,7.10
2023-01-12T09:31:32.427Z,7.10
2023-01-12T09:34:00.465Z,7.10
2023-01-12T09:36:32.498Z,7.10
2023-01-12T09:39:01.310Z,7.20
2023-01-12T09:41:55.611Z,7.20
2023-01-12T09:44:56.217Z,7.40
2023-01-12T09:47:56.122Z,7.50
2023-01-12T09:50:34.709Z,7.50
2023-01-12T09:53:23.335Z,7.60
2023-01-12T09:56:08.360Z,7.60
2023-01-12T09:59:18.393Z,7.50
2023-01-12T10:01:46.070Z,7.50
2023-01-12T10:04:14.620Z,7.40
2023-01-12T10:06:42.162Z,7.30
2023-01-12T10:09:22.807Z,7.30
2023-01-12T10:12:24.459Z,7.20
2023-01-12T10:15:42.581Z,7.20
2023-01-12T10:18:44.361Z,7.10
2023-01-12T10:21:12.972Z,7.00
2023-01-12T10:23:40.006Z,7.00
2023-01-12T10:26:24.739Z,7.00
2023-01-12T10:28:55.441Z,7.00
2023-01-12T10:31:26.086Z,7.00
2023-01-12T10:34:12.992Z,7.00
2023-01-12T10:36:49.820Z,7.00
2023-01-12T10:39:35.391Z,7.00
2023-01-12T10:42:42.183Z,6.90
2023-01-12T10:45:24.445Z,6.80
2023-01-12T10:47:54.009Z,6.90
2023-01-12T10:50:35.045Z,7.00
2023-01-12T10:53:17.095Z,7.20
2023-01-12T10:55:45.281Z,7.30
2023-01-12T10:58:30.202Z,7.50
2023-01-12T11:00:58.500Z,7.60
2023-01-12T11:03:41.872Z,7.60
2023-01-12T11:06:32.854Z,7.60
2023-01-12T11:09:23.686Z,7.60
2023-01-12T11:12:01.687Z,7.60
2023-01-12T11:14:38.276Z,7.60
2023-01-12T11:17:33.915Z,7.60
2023-01-12T11:20:06.812Z,7.60
2023-01-12T11:22:38.031Z,7.60
2023-01-12T11:25:24.218Z,7.70
2023-01-12T11:28:34.364Z,7.70
2023-01-12T11:31:21.206Z,7.80
2023-01-12T11:34:11.102Z,7.90
2023-01-12T11:37:03.826Z,7.80
2023-01-12T11:39:32.193Z,7.80
2023-01-12T11:42:20.662Z,7.80
2023-01-12T11:45:07.659Z,7.80
2023-01-12T11:47:48.899Z,7.80
2023-01-12T11:50:37.526Z,7.70
2023-01-12T11:53:07.107Z,7.70
2023-01-12T11:56:25.532Z,7.70
2023-01-12T11:59:12.495Z,7.70
2023-01-12T12:02:17.252Z,7.80
2023-01-12T12:05:26.962Z,7.80
2023-01-12T12:08:41.932Z,7.80
2023-01-12T12:11:44.800Z,7.80
2023-01-12T12:15:15.896Z,7.80
2023-01-12T12:18:17.734Z,7.80
2023-01-12T12:21:30.350Z,7.80
2023-01-12T12:24:42.413Z,7.90
2023-01-12T12:27:45.328Z,7.90
2023-01-12T12:31:39.880Z,7.90
2023-01-12T12:35:43.983Z,7.90
2023-01-12T12:38:40.955Z,7.90
2023-01-12T12:42:02.621Z,8.00
2023-01-12T12:45:17.327Z,8.10
2023-01-12T12:48:21.180Z,8.10
2023-01-12T12:51:11.660Z,8.10
2023-01-12T12:53:49.543Z,8.00
2023-01-12T12:56:22.369Z,8.00
2023-01-12T12:58:53.787Z,8.00
2023-01-12T13:01:23.550Z,7.90
2023-01-12T13:04:02.372Z,8.00
2023-01-12T13:06:35.571Z,8.00
2023-01-12T13:09:11.053Z,8.10
2023-01-12T13:11:54.361Z,8.00
2023-01-12T13:14:39.036Z,8.00
2023-01-12T13:17:21.071Z,8.00
2023-01-12T13:20:06.164Z,8.00
2023-01-12T13:22:50.400Z,8.00
2023-01-12T13:25:19.193Z,8.10
2023-01-12T13:28:00.299Z,8.10
2023-01-12T13:30:29.924Z,8.10
2023-01-12T13:33:15.523Z,8.20
2023-01-12T13:35:44.978Z,8.20
2023-01-12T13:38:51.708Z,8.20
2023-01-12T13:41:51.652Z,8.20
2023-01-12T13:44:44.289Z,8.30
2023-01-12T13:47:27.864Z,8.20
2023-01-12T13:50:01.893Z,8.20
2023-01-12T13:52:37.046Z,8.20
2023-01-12T13:55:20.938Z,8.10
2023-01-12T13:58:18.061Z,8.10
2023-01-12T14:01:01.253Z,8.10
2023-01-12T14:04:15.971Z,8.10
2023-01-12T14:07:23.013Z,8.00
2023-01-12T14:10:27.555Z,8.00
2023-01-12T14:13:44.653Z,8.00
2023-01-12T14:16:35.346Z,8.00
2023-01-12T14:19:26.549Z,7.90
2023-01-12T14:22:02.685Z,7.90
2023-01-12T14:24:29.750Z,7.90
2023-01-12T14:26:57.289Z,7.90
2023-01-12T14:29:24.255Z,7.90
2023-01-12T14:31:54.322Z,7.90
2023-01-12T14:34:37.279Z,7.90
2023-01-12T14:37:24.607Z,7.90
2023-01-12T14:39:51.647Z,7.90
2023-01-12T14:42:39.561Z,7.90
2023-01-12T14:45:46.704Z,7.90
2023-01-12T14:48:30.939Z,7.90
2023-01-12T14:51:18.041Z,7.80
2023-01-12T14:53:48.337Z,7.90
2023-01-12T14:56:31.390Z,7.90
2023-01-12T14:59:19.194Z,7.90
2023-01-12T15:01:46.463Z,7.80
2023-01-12T15:04:25.688Z,7.80
2023-01-12T15:07:07.679Z,7.90
2023-01-12T15:09:51.684Z,7.90
2023-01-12T15:12:42.223Z,7.90
2023-01-12T15:15:23.361Z,7.90
2023-01-12T15:18:13.516Z,7.80
2023-01-12T15:21:04.495Z,7.80
2023-01-12T15:23:56.360Z,7.80
2023-01-12T15:26:23.390Z,7.80
2023-01-12T15:28:50.416Z,7.80
2023-01-12T15:31:35.637Z,7.80
2023-01-12T15:34:05.332Z,7.80
2023-01-12T15:36:32.283Z,7.80
2023-01-12T15:38:59.507Z,7.80
2023-01-12T15:42:01.457Z,7.80
2023-01-12T15:44:28.370Z,7.80
2023-01-12T15:46:55.252Z,7.80
2023-01-12T15:49:22.588Z,7.70
2023-01-12T15:51:51.733Z,7.80
2023-01-12T15:54:20.539Z,7.80
2023-01-12T15:56:48.379Z,7.80
2023-01-12T15:59:16.586Z,7.70
2023-01-12T16:01:49.614Z,7.70
2023-01-12T16:07:10.940Z,7.70
2023-01-12T16:09:37.853Z,7.70
2023-01-12T16:12:05.480Z,7.70
2023-01-12T16:14:32.395Z,7.70
2023-01-12T16:16:59.344Z,7.70
2023-01-12T16:19:27.481Z,7.70
2023-01-12T16:21:54.956Z,7.70
2023-01-12T16:24:26.341Z,7.70
2023-01-12T16:26:53.737Z,7.70
2023-01-12T16:29:21.892Z,7.70
2023-01-12T16:31:48.795Z,7.70
2023-01-12T16:34:18.110Z,7.70
2023-01-12T16:36:45.089Z,7.70
2023-01-12T16:39:13.096Z,7.70
2023-01-12T16:41:40.115Z,7.70
2023-01-12T16:44:07.157Z,7.70
2023-01-12T16:46:34.094Z,7.70
2023-01-12T16:49:04.040Z,7.70
2023-01-12T16:51:34.091Z,7.70
2023-01-12T16:54:02.725Z,7.70
2023-01-12T16:56:29.689Z,7.70
2023-01-12T16:58:58.147Z,7.70
2023-01-12T17:01:26.053Z,7.70
2023-01-12T17:03:57.606Z,7.70
2023-01-12T17:06:28.216Z,7.70
2023-01-12T17:08:55.517Z,7.70
2023-01-12T17:11:24.214Z,7.70
2023-01-12T17:13:55.265Z,7.70
2023-01-12T17:16:28.074Z,7.70
2023-01-12T17:18:55.250Z,7.80
2023-01-12T17:21:22.356Z,7.80
2023-01-12T17:23:49.352Z,7.80
2023-01-12T17:26:18.960Z,7.80
2023-01-12T17:28:47.640Z,7.80
2023-01-12T17:31:18.666Z,7.80
2023-01-12T17:33:46.394Z,7.80
2023-01-12T17:36:14.270Z,7.80
2023-01-12T17:38:41.335Z,7.80
2023-01-12T17:41:34.619Z,7.80
2023-01-12T17:44:05.594Z,7.80
2023-01-12T17:46:33.767Z,7.70
2023-01-12T17:49:05.577Z,7.80
2023-01-12T17:51:33.970Z,7.80
2023-01-12T17:54:04.965Z,7.70
2023-01-12T17:56:35.297Z,7.70
2023-01-12T17:59:04.981Z,7.70
2023-01-12T18:01:35.639Z,7.70
2023-01-12T18:04:03.685Z,7.70
2023-01-12T18:06:31.409Z,7.70
2023-01-12T18:09:01.770Z,7.70
2023-01-12T18:11:31.144Z,7.70
2023-01-12T18:14:00.581Z,7.70
2023-01-12T18:16:28.334Z,7.70
2023-01-12T18:18:55.746Z,7.70
2023-01-12T18:21:27.558Z,7.80
2023-01-12T18:23:57.000Z,7.70
2023-01-12T18:26:32.970Z,7.80
2023-01-12T18:29:03.562Z,7.80
2023-01-12T18:31:37.187Z,7.80
2023-01-12T18:34:07.523Z,7.80
2023-01-12T18:36:41.314Z,7.80
2023-01-12T18:39:15.955Z,7.80
2023-01-12T18:42:01.733Z,7.90
2023-01-12T18:44:28.769Z,7.90
2023-01-12T18:47:16.577Z,7.90
2023-01-12T18:49:46.750Z,7.90
2023-01-12T18:52:33.534Z,7.90
2023-01-12T18:55:00.891Z,7.90
2023-01-12T18:57:32.028Z,7.90
2023-01-12T19:00:16.751Z,7.90
2023-01-12T19:02:45.030Z,7.80
2023-01-12T19:05:25.828Z,7.90
2023-01-12T19:07:58.799Z,7.90
2023-01-12T19:10:29.593Z,7.90
2023-01-12T19:13:17.165Z,7.90
2023-01-12T19:16:03.163Z,7.80
2023-01-12T19:18:30.123Z,7.80
2023-01-12T19:21:15.824Z,7.80
2023-01-12T19:24:01.415Z,7.80
2023-01-12T19:26:46.681Z,7.80
2023-01-12T19:29:13.694Z,7.70
2023-01-12T19:31:40.686Z,7.70
2023-01-12T19:34:07.726Z,7.60
2023-01-12T19:36:36.631Z,7.70
2023-01-12T19:39:06.649Z,7.70
2023-01-12T19:41:52.915Z,7.70
2023-01-12T19:44:20.254Z,7.70
2023-01-12T19:46:47.393Z,7.70
2023-01-12T19:49:16.813Z,7.70
2023-01-12T19:51:46.029Z,7.60
2023-01-12T19:54:13.209Z,7.60
2023-01-12T19:56:40.678Z,7.50
2023-01-12T19:59:07.839Z,7.50
2023-01-12T20:01:34.844Z,7.40
2023-01-12T20:04:01.929Z,7.40
2023-01-12T20:06:29.028Z,7.30
2023-01-12T20:08:55.944Z,7.20
2023-01-12T20:11:23.261Z,7.20
2023-01-12T20:13:50.158Z,7.20
2023-01-12T20:16:17.246Z,7.20
2023-01-12T20:18:44.570Z,7.10
2023-01-12T20:21:12.785Z,7.10
2023-01-12T20:23:39.892Z,7.10
2023-01-12T20:26:11.201Z,7.10
2023-01-12T20:28:39.371Z,7.10
2023-01-12T20:31:14.116Z,7.10
2023-01-12T20:33:41.988Z,7.20
2023-01-12T20:36:16.890Z,7.20
2023-01-12T20:38:46.802Z,7.30
2023-01-12T20:41:13.993Z,7.30
2023-01-12T20:43:40.905Z,7.30
2023-01-12T20:46:13.942Z,7.20
2023-01-12T20:48:42.646Z,7.20
2023-01-12T20:51:15.324Z,7.20
2023-01-12T20:53:43.380Z,7.20
2023-01-12T20:56:10.923Z,7.20
2023-01-12T20:58:37.879Z,7.20
2023-01-12T21:01:14.581Z,7.20
2023-01-12T21:03:42.999Z,7.20
2023-01-12T21:06:15.102Z,7.20
2023-01-12T21:08:44.793Z,7.20
2023-01-12T21:11:16.602Z,7.20
2023-01-12T21:13:44.739Z,7.20
2023-01-12T21:16:19.037Z,7.30
2023-01-12T21:18:46.477Z,7.30
2023-01-12T21:21:13.731Z,7.20
2023-01-12T21:23:40.823Z,7.20
2023-01-12T21:26:10.745Z,7.20
2023-01-12T21:28:40.598Z,7.30
2023-01-12T21:31:11.716Z,7.20
2023-01-12T21:33:46.154Z,7.30
2023-01-12T21:36:14.477Z,7.30
2023-01-12T21:38:41.523Z,7.30
2023-01-12T21:41:13.353Z,7.40
2023-01-12T21:43:40.239Z,7.40
2023-01-12T21:46:12.160Z,7.40
2023-01-12T21:48:41.810Z,7.50
2023-01-12T21:51:16.579Z,7.50
2023-01-12T21:53:44.063Z,7.50
2023-01-12T21:56:13.276Z,7.50
2023-01-12T21:58:40.307Z,7.50
2023-01-12T22:01:14.887Z,7.40
2023-01-12T22:03:42.150Z,7.30
2023-01-12T22:06:13.255Z,7.20
2023-01-12T22:08:42.391Z,7.20
2023-01-12T22:11:14.615Z,7.20
2023-01-12T22:13:43.426Z,7.20
2023-01-12T22:16:15.351Z,7.10
2023-01-12T22:18:50.703Z,7.10
2023-01-12T22:21:21.064Z,7.10
2023-01-12T22:23:49.045Z,7.10
2023-01-12T22:26:20.359Z,7.10
2023-01-12T22:28:48.916Z,7.10
2023-01-12T22:31:25.132Z,7.10
2023-01-12T22:34:05.276Z,7.20
2023-01-12T22:36:42.689Z,7.20
2023-01-12T22:39:12.466Z,7.30
2023-01-12T22:41:42.315Z,7.30
2023-01-12T22:44:09.263Z,7.40
2023-01-12T22:46:36.784Z,7.50
2023-01-12T22:49:04.058Z,7.60
2023-01-12T22:51:31.246Z,7.60
2023-01-12T22:53:58.412Z,7.70
2023-01-12T22:56:25.944Z,7.70
2023-01-12T22:58:55.642Z,7.80
2023-01-12T23:01:28.117Z,7.80
2023-01-12T23:03:57.429Z,7.80
2023-01-12T23:06:26.603Z,7.90
2023-01-12T23:08:53.885Z,7.90
2023-01-12T23:11:26.892Z,7.90
2023-01-12T23:13:56.896Z,7.90
2023-01-12T23:16:25.602Z,7.90
2023-01-12T23:18:55.117Z,7.90
2023-01-12T23:21:28.694Z,8.00
2023-01-12T23:23:59.915Z,8.00
2023-01-12T23:26:32.564Z,8.00
2023-01-12T23:29:02.735Z,8.10
2023-01-12T23:31:33.353Z,8.10
2023-01-12T23:34:01.098Z,8.10
2023-01-12T23:36:29.807Z,8.10
2023-01-12T23:39:01.828Z,8.10
2023-01-12T23:41:33.288Z,8.10
2023-01-12T23:44:05.208Z,8.20
2023-01-12T23:46:40.105Z,8.20
2023-01-12T23:49:07.156Z,8.20
2023-01-12T23:51:36.106Z,8.20
2023-01-12T23:54:04.001Z,8.20
2023-01-12T23:56:34.546Z,8.30
2023-01-12T23:59:01.573Z,8.20
